首页
METAR-TAF:

METAR-TAF

机场 :

Bradford, 宾夕法尼亚州, 美国

纬度: 41-47-55N, 经度: 078-38-09W, 海拔: 653米

当前天气观测

该预报发布于23分钟前的15:53 UTC
风速3节,风向多变
温度 -3°C
湿度 80%
气压 1024 hPa
能見度: 12.9公里
多云层高于800英尺

METAR: KBFD 171553Z AUTO VRB03KT 8SM BKN008 M03/M06 A3023 RMK AO2 CIG 007V011 SLP261 T10331056

时间: 11:16 (16:16 UTC)

预报

该预报发布于1小时和37分钟前的14:39 UTC
预报有效从17日的 15点(UTC)到 18日的 12点(UTC)
风速3节,风向西
能見度: 4.8公里
阴天层高于300英尺
轻雾
从 17日的 1510点(UTC)
风速4节,风向多变
能見度: 8.0公里
散云层高于500英尺
轻雾
从 17日的 1540点(UTC)
风速5节,风向西转西南
能見度: 10公里
天空无云
从 17日的 1700点(UTC)
风速7节,风向东转东南
能見度: 10公里
天空无云
从 17日的 2200点(UTC)
风速8节,风向东南,有时为15节阵风
能見度: 10公里
多云层高于10000英尺
从 18日的 0800点(UTC)
风速12节,风向南转南东,有时为22节阵风
能見度: 3.2公里
多云层高于900英尺
阴天层高于1500英尺
小雨, 雪, 轻雾

TAF: KBFD 171439Z 1715/1812 26003KT 3SM BR OVC003 FM171510 VRB04KT 5SM BR SCT005 FM171540 24005KT P6SM SKC FM171700 12007KT P6SM SKC FM172200 14008G15KT P6SM BKN100 FM180800 16012G22KT 2SM -RASN BR BKN009 OVC015

超过4000个机场的气象观测和天气预报(METAR&TAF报告)。

可查询的气象台以黄色和红色小点在地图上表示。

将鼠标移到小点上方,可查看气象台名称。

然后点击查看天气观测和预报。

如需切换地图:点击带黑十字的绿色按钮放大地图;点击带横线的绿色按钮缩小地图;或者点击绿色箭头查看邻近地区的地图。


METAR-TAF: